createdAt,value
2023-05-13T00:00:23.720Z,1010.45
2023-05-13T00:01:24.185Z,1010.43
2023-05-13T00:02:25.264Z,1010.43
2023-05-13T00:03:25.742Z,1010.42
2023-05-13T00:04:26.170Z,1010.42
2023-05-13T00:05:27.041Z,1010.41
2023-05-13T00:06:27.991Z,1010.41
2023-05-13T00:07:28.825Z,1010.39
2023-05-13T00:08:39.093Z,1010.41
2023-05-13T00:09:30.512Z,1010.41
2023-05-13T00:10:31.378Z,1010.39
2023-05-13T00:11:32.231Z,1010.39
2023-05-13T00:12:32.874Z,1010.38
2023-05-13T00:13:33.765Z,1010.38
2023-05-13T00:14:34.622Z,1010.39
2023-05-13T00:15:35.508Z,1010.39
2023-05-13T00:16:36.515Z,1010.40
2023-05-13T00:17:37.084Z,1010.41
2023-05-13T00:18:37.599Z,1010.40
2023-05-13T00:19:38.486Z,1010.40
2023-05-13T00:20:39.375Z,1010.40
2023-05-13T00:21:40.311Z,1010.39
2023-05-13T00:22:41.186Z,1010.39
2023-05-13T00:23:42.057Z,1010.40
2023-05-13T00:24:42.934Z,1010.40
2023-05-13T00:25:43.822Z,1010.39
2023-05-13T00:26:44.706Z,1010.39
2023-05-13T00:27:45.583Z,1010.39
2023-05-13T00:28:46.462Z,1010.38
2023-05-13T00:29:47.347Z,1010.37
2023-05-13T00:30:48.322Z,1010.38
2023-05-13T00:31:49.218Z,1010.36
2023-05-13T00:32:49.854Z,1010.36
2023-05-13T00:33:50.748Z,1010.36
2023-05-13T00:34:51.674Z,1010.34
2023-05-13T00:35:52.546Z,1010.35
2023-05-13T00:36:53.439Z,1010.35
2023-05-13T00:37:54.291Z,1010.33
2023-05-13T00:38:55.228Z,1010.34
2023-05-13T00:39:56.084Z,1010.34
2023-05-13T00:40:56.955Z,1010.35
2023-05-13T00:41:57.849Z,1010.37
2023-05-13T00:42:58.721Z,1010.37
2023-05-13T00:43:59.607Z,1010.38
2023-05-13T00:45:00.483Z,1010.38
2023-05-13T00:46:01.385Z,1010.38
2023-05-13T00:47:02.267Z,1010.38
2023-05-13T00:48:03.215Z,1010.38
2023-05-13T00:49:04.086Z,1010.38
2023-05-13T00:50:04.975Z,1010.35
2023-05-13T00:51:05.911Z,1010.37
2023-05-13T00:52:06.799Z,1010.36
2023-05-13T00:53:08.685Z,1010.37
2023-05-13T00:54:08.859Z,1010.37
2023-05-13T00:55:09.285Z,1010.38
2023-05-13T00:56:10.120Z,1010.38
2023-05-13T00:57:10.978Z,1010.40
2023-05-13T00:58:11.872Z,1010.40
2023-05-13T00:59:12.743Z,1010.41
2023-05-13T01:00:13.636Z,1010.40
2023-05-13T01:01:14.579Z,1010.41
2023-05-13T01:02:15.490Z,1010.40
2023-05-13T01:03:16.540Z,1010.40
2023-05-13T01:04:17.067Z,1010.39
2023-05-13T01:05:17.952Z,1010.39
2023-05-13T01:06:18.878Z,1010.38
2023-05-13T01:07:19.732Z,1010.38
2023-05-13T01:08:20.591Z,1010.39
2023-05-13T01:09:21.520Z,1010.39
2023-05-13T01:10:22.555Z,1010.38
2023-05-13T01:11:23.183Z,1010.38
2023-05-13T01:12:24.066Z,1010.37
2023-05-13T01:13:24.976Z,1010.39
2023-05-13T01:14:25.870Z,1010.38
2023-05-13T01:15:26.709Z,1010.38
2023-05-13T01:16:27.622Z,1010.40
2023-05-13T01:17:28.478Z,1010.42
2023-05-13T01:18:29.354Z,1010.42
2023-05-13T01:19:30.215Z,1010.42
2023-05-13T01:20:31.088Z,1010.42
2023-05-13T01:21:31.999Z,1010.40
2023-05-13T01:22:32.859Z,1010.40
2023-05-13T01:23:33.706Z,1010.40
2023-05-13T01:24:34.760Z,1010.40
2023-05-13T01:25:35.122Z,1010.41
2023-05-13T01:26:36.017Z,1010.40
2023-05-13T01:27:36.934Z,1010.42
2023-05-13T01:28:37.765Z,1010.43
2023-05-13T01:29:38.642Z,1010.43
2023-05-13T01:30:39.507Z,1010.44
2023-05-13T01:31:40.457Z,1010.45
2023-05-13T01:32:41.330Z,1010.44
2023-05-13T01:33:42.209Z,1010.43
2023-05-13T01:34:43.090Z,1010.46
2023-05-13T01:35:43.978Z,1010.47
2023-05-13T01:36:44.958Z,1010.48
2023-05-13T01:37:45.816Z,1010.49
2023-05-13T01:38:46.710Z,1010.47
2023-05-13T01:39:47.569Z,1010.47
2023-05-13T01:40:48.458Z,1010.45
2023-05-13T01:41:49.391Z,1010.47
2023-05-13T01:42:50.214Z,1010.48
2023-05-13T01:43:51.097Z,1010.50
2023-05-13T01:44:51.985Z,1010.50
2023-05-13T01:45:52.868Z,1010.47
2023-05-13T01:46:53.853Z,1010.47
2023-05-13T01:47:54.761Z,1010.47
2023-05-13T01:48:55.613Z,1010.46
2023-05-13T01:49:56.499Z,1010.46
2023-05-13T01:50:57.368Z,1010.46
2023-05-13T01:51:58.245Z,1010.46
2023-05-13T01:52:59.162Z,1010.47
2023-05-13T01:54:00.000Z,1010.48
2023-05-13T01:55:00.879Z,1010.49
2023-05-13T01:56:01.745Z,1010.49
2023-05-13T01:57:02.641Z,1010.49
2023-05-13T01:58:03.491Z,1010.46
2023-05-13T01:59:04.371Z,1010.46
2023-05-13T02:00:05.248Z,1010.45
2023-05-13T02:01:06.138Z,1010.43
2023-05-13T02:02:07.028Z,1010.43
2023-05-13T02:03:07.958Z,1010.44
2023-05-13T02:04:08.863Z,1010.43
2023-05-13T02:05:09.760Z,1010.42
2023-05-13T02:06:10.631Z,1010.42
2023-05-13T02:07:11.458Z,1010.42
2023-05-13T02:08:12.360Z,1010.42
2023-05-13T02:09:13.264Z,1010.41
2023-05-13T02:10:14.132Z,1010.42
2023-05-13T02:11:15.001Z,1010.44
2023-05-13T02:12:15.887Z,1010.44
2023-05-13T02:13:16.777Z,1010.43
2023-05-13T02:14:17.659Z,1010.45
2023-05-13T02:15:18.590Z,1010.45
2023-05-13T02:16:19.485Z,1010.43
2023-05-13T02:17:20.347Z,1010.43
2023-05-13T02:18:21.214Z,1010.46
2023-05-13T02:19:22.128Z,1010.48
2023-05-13T02:20:23.275Z,1010.47
2023-05-13T02:21:23.842Z,1010.48
2023-05-13T02:22:24.716Z,1010.48
2023-05-13T02:23:25.608Z,1010.47
2023-05-13T02:24:26.485Z,1010.49
2023-05-13T02:25:27.389Z,1010.48
2023-05-13T02:26:28.316Z,1010.47
2023-05-13T02:27:29.140Z,1010.48
2023-05-13T02:28:30.018Z,1010.45
2023-05-13T02:29:30.903Z,1010.47
2023-05-13T02:30:31.791Z,1010.46
2023-05-13T02:31:32.682Z,1010.45
2023-05-13T02:32:33.528Z,1010.45
2023-05-13T02:33:34.398Z,1010.45
2023-05-13T02:34:35.290Z,1010.45
2023-05-13T02:35:36.143Z,1010.46
2023-05-13T02:36:37.026Z,1010.45
2023-05-13T02:37:37.898Z,1010.47
2023-05-13T02:38:38.920Z,1010.45
2023-05-13T02:39:39.738Z,1010.46
2023-05-13T02:40:40.649Z,1010.47
2023-05-13T02:41:41.502Z,1010.46
2023-05-13T02:42:42.383Z,1010.46
2023-05-13T02:43:43.248Z,1010.46
2023-05-13T02:44:44.185Z,1010.46
2023-05-13T02:45:45.038Z,1010.45
2023-05-13T02:46:45.917Z,1010.43
2023-05-13T02:47:46.830Z,1010.43
2023-05-13T02:48:47.712Z,1010.43
2023-05-13T02:49:48.722Z,1010.42
2023-05-13T02:50:49.127Z,1010.44
2023-05-13T02:51:50.036Z,1010.42
2023-05-13T02:52:50.972Z,1010.41
2023-05-13T02:53:51.841Z,1010.42
2023-05-13T02:54:52.739Z,1010.42
2023-05-13T02:55:53.601Z,1010.41
2023-05-13T02:56:54.480Z,1010.41
2023-05-13T02:57:55.367Z,1010.40
2023-05-13T02:58:56.267Z,1010.38
2023-05-13T02:59:57.104Z,1010.38
2023-05-13T03:00:58.011Z,1010.36
2023-05-13T03:01:58.869Z,1010.36
2023-05-13T03:02:59.837Z,1010.37
2023-05-13T03:04:00.241Z,1010.38
2023-05-13T03:05:01.192Z,1010.38
2023-05-13T03:06:02.028Z,1010.38
2023-05-13T03:07:02.909Z,1010.37
2023-05-13T03:08:03.777Z,1010.38
2023-05-13T03:09:04.711Z,1010.38
2023-05-13T03:10:05.537Z,1010.39
2023-05-13T03:11:06.414Z,1010.37
2023-05-13T03:12:07.294Z,1010.38
2023-05-13T03:13:08.178Z,1010.41
2023-05-13T03:14:09.043Z,1010.41
2023-05-13T03:15:09.944Z,1010.41
2023-05-13T03:16:10.817Z,1010.41
2023-05-13T03:17:11.677Z,1010.41
2023-05-13T03:18:12.541Z,1010.41
2023-05-13T03:19:13.488Z,1010.41
2023-05-13T03:20:14.375Z,1010.42
2023-05-13T03:21:15.264Z,1010.41
2023-05-13T03:22:16.114Z,1010.41
2023-05-13T03:23:17.073Z,1010.41
2023-05-13T03:24:17.917Z,1010.40
2023-05-13T03:25:18.778Z,1010.42
2023-05-13T03:26:19.645Z,1010.42
2023-05-13T03:27:20.543Z,1010.42
2023-05-13T03:28:21.425Z,1010.41
2023-05-13T03:29:22.290Z,1010.41
2023-05-13T03:30:23.474Z,1010.38
2023-05-13T03:31:23.893Z,1010.39
2023-05-13T03:32:24.790Z,1010.41
2023-05-13T03:33:25.666Z,1010.38
2023-05-13T03:34:26.524Z,1010.39
2023-05-13T03:35:27.413Z,1010.38
2023-05-13T03:36:28.268Z,1010.37
2023-05-13T03:37:29.151Z,1010.37
2023-05-13T03:38:30.045Z,1010.35
2023-05-13T03:39:31.009Z,1010.36
2023-05-13T03:40:31.861Z,1010.33
2023-05-13T03:41:32.756Z,1010.34
2023-05-13T03:42:33.604Z,1010.34
2023-05-13T03:43:34.498Z,1010.33
2023-05-13T03:44:35.399Z,1010.31
2023-05-13T03:45:36.264Z,1010.32
2023-05-13T03:46:37.192Z,1010.33
2023-05-13T03:47:38.092Z,1010.33
2023-05-13T03:48:39.001Z,1010.32
2023-05-13T03:49:39.836Z,1010.31
2023-05-13T03:50:40.718Z,1010.31
2023-05-13T03:51:41.602Z,1010.32
2023-05-13T03:52:43.597Z,1010.30
2023-05-13T03:53:43.270Z,1010.34
2023-05-13T03:54:44.139Z,1010.33
2023-05-13T03:55:45.000Z,1010.34
2023-05-13T03:56:45.860Z,1010.32
2023-05-13T03:57:46.828Z,1010.31
2023-05-13T03:58:47.686Z,1010.31
2023-05-13T03:59:48.585Z,1010.32
2023-05-13T04:00:49.516Z,1010.31
2023-05-13T04:01:50.441Z,1010.32
2023-05-13T04:02:51.450Z,1010.32
2023-05-13T04:03:51.904Z,1010.32
2023-05-13T04:04:52.824Z,1010.34
2023-05-13T04:05:53.695Z,1010.32
2023-05-13T04:06:54.567Z,1010.33
2023-05-13T04:07:55.465Z,1010.32
2023-05-13T04:08:56.421Z,1010.33
2023-05-13T04:09:57.302Z,1010.32
2023-05-13T04:10:58.157Z,1010.33
2023-05-13T04:11:59.101Z,1010.34
2023-05-13T04:12:59.923Z,1010.35
2023-05-13T04:14:00.805Z,1010.38
2023-05-13T04:15:01.736Z,1010.38
2023-05-13T04:16:02.620Z,1010.40
2023-05-13T04:17:03.519Z,1010.42
2023-05-13T04:18:04.399Z,1010.41
2023-05-13T04:19:05.302Z,1010.43
2023-05-13T04:20:06.128Z,1010.44
2023-05-13T04:21:07.035Z,1010.44
2023-05-13T04:22:07.952Z,1010.45
2023-05-13T04:23:08.780Z,1010.46
2023-05-13T04:24:09.663Z,1010.45
2023-05-13T04:25:10.539Z,1010.49
2023-05-13T04:26:11.436Z,1010.45
2023-05-13T04:27:12.297Z,1010.48
2023-05-13T04:28:13.167Z,1010.48
2023-05-13T04:29:14.015Z,1010.49
2023-05-13T04:30:14.996Z,1010.47
2023-05-13T04:31:15.889Z,1010.48
2023-05-13T04:32:16.769Z,1010.51
2023-05-13T04:33:17.715Z,1010.50
2023-05-13T04:34:18.558Z,1010.52
2023-05-13T04:35:19.472Z,1010.49
2023-05-13T04:36:20.353Z,1010.50
2023-05-13T04:37:21.193Z,1010.48
2023-05-13T04:38:22.071Z,1010.51
2023-05-13T04:39:22.954Z,1010.55
2023-05-13T04:40:24.108Z,1010.54
2023-05-13T04:41:24.520Z,1010.56
2023-05-13T04:42:25.405Z,1010.58
2023-05-13T04:43:26.293Z,1010.60
2023-05-13T04:44:27.136Z,1010.61
2023-05-13T04:45:28.054Z,1010.62
2023-05-13T04:46:28.955Z,1010.60
2023-05-13T04:47:29.862Z,1010.60
2023-05-13T04:48:30.733Z,1010.62
2023-05-13T04:49:31.522Z,1010.61
2023-05-13T04:50:32.301Z,1010.62
2023-05-13T04:51:33.181Z,1010.63
2023-05-13T04:52:33.957Z,1010.62
2023-05-13T04:53:34.809Z,1010.62
2023-05-13T04:54:35.748Z,1010.63
2023-05-13T04:55:36.620Z,1010.63
2023-05-13T04:56:37.478Z,1010.61
2023-05-13T04:57:38.356Z,1010.63
2023-05-13T04:58:39.222Z,1010.65
2023-05-13T04:59:40.125Z,1010.64
2023-05-13T05:00:41.022Z,1010.64
2023-05-13T05:01:42.104Z,1010.66
2023-05-13T05:02:42.581Z,1010.67
2023-05-13T05:03:43.499Z,1010.68
2023-05-13T05:04:44.375Z,1010.67
2023-05-13T05:05:45.256Z,1010.67
2023-05-13T05:06:46.191Z,1010.66
2023-05-13T05:07:47.036Z,1010.67
2023-05-13T05:08:47.907Z,1010.66
2023-05-13T05:09:48.784Z,1010.65
2023-05-13T05:10:49.698Z,1010.66
2023-05-13T05:11:50.595Z,1010.68
2023-05-13T05:12:51.472Z,1010.69
2023-05-13T05:13:52.348Z,1010.70
2023-05-13T05:14:53.231Z,1010.70
2023-05-13T05:15:54.179Z,1010.74
2023-05-13T05:16:55.053Z,1010.72
2023-05-13T05:17:56.065Z,1010.70
2023-05-13T05:18:56.602Z,1010.72
2023-05-13T05:19:57.051Z,1010.75
2023-05-13T05:20:59.282Z,1010.73
2023-05-13T05:21:58.384Z,1010.78
2023-05-13T05:22:59.252Z,1010.78
2023-05-13T05:24:00.156Z,1010.79
2023-05-13T05:25:01.020Z,1010.78
2023-05-13T05:26:11.244Z,1010.79
2023-05-13T05:27:03.666Z,1010.80
2023-05-13T05:28:03.555Z,1010.81
2023-05-13T05:29:04.445Z,1010.82
2023-05-13T05:30:05.295Z,1010.82
2023-05-13T05:31:06.253Z,1010.85
2023-05-13T05:32:07.136Z,1010.84
2023-05-13T05:33:08.127Z,1010.84
2023-05-13T05:34:08.542Z,1010.85
2023-05-13T05:35:09.424Z,1010.85
2023-05-13T05:36:10.312Z,1010.86
2023-05-13T05:37:11.216Z,1010.85
2023-05-13T05:38:12.091Z,1010.86
2023-05-13T05:39:12.967Z,1010.84
2023-05-13T05:40:13.868Z,1010.87
2023-05-13T05:41:14.868Z,1010.87
2023-05-13T05:42:15.693Z,1010.88
2023-05-13T05:43:16.586Z,1010.88
2023-05-13T05:44:17.461Z,1010.87
2023-05-13T05:45:18.326Z,1010.84
2023-05-13T05:46:19.309Z,1010.85
2023-05-13T05:47:20.165Z,1010.86
2023-05-13T05:48:21.038Z,1010.87
2023-05-13T05:49:21.944Z,1010.88
2023-05-13T05:50:23.050Z,1010.86
2023-05-13T05:51:23.511Z,1010.88
2023-05-13T05:52:24.377Z,1010.86
2023-05-13T05:53:25.256Z,1010.85
2023-05-13T05:54:26.155Z,1010.87
2023-05-13T05:55:27.022Z,1010.83
2023-05-13T05:56:27.924Z,1010.86
2023-05-13T05:57:28.795Z,1010.85
2023-05-13T05:58:29.710Z,1010.88
2023-05-13T05:59:30.559Z,1010.85
2023-05-13T06:00:31.402Z,1010.84
2023-05-13T06:01:32.289Z,1010.85
2023-05-13T06:02:33.285Z,1010.87
2023-05-13T06:03:33.823Z,1010.87
2023-05-13T06:04:34.364Z,1010.86
2023-05-13T06:05:35.334Z,1010.85
2023-05-13T06:06:36.258Z,1010.88
2023-05-13T06:07:37.112Z,1010.86
2023-05-13T06:08:38.003Z,1010.88
2023-05-13T06:09:38.909Z,1010.88
2023-05-13T06:10:39.792Z,1010.89
2023-05-13T06:11:48.209Z,1010.90
2023-05-13T06:12:41.279Z,1010.89
2023-05-13T06:13:42.276Z,1010.88
2023-05-13T06:14:43.144Z,1010.90
2023-05-13T06:15:44.048Z,1010.88
2023-05-13T06:16:44.993Z,1010.89
2023-05-13T06:17:45.913Z,1010.87
2023-05-13T06:18:46.890Z,1010.87
2023-05-13T06:19:47.774Z,1010.88
2023-05-13T06:20:48.655Z,1010.85
2023-05-13T06:21:49.515Z,1010.87
2023-05-13T06:22:50.381Z,1010.87
2023-05-13T06:23:51.316Z,1010.89
2023-05-13T06:24:52.154Z,1010.87
2023-05-13T06:25:53.044Z,1010.89
2023-05-13T06:26:53.927Z,1010.88
2023-05-13T06:27:54.777Z,1010.94
2023-05-13T06:28:55.677Z,1010.91
2023-05-13T06:29:56.533Z,1010.90
2023-05-13T06:30:57.510Z,1010.91
2023-05-13T06:31:57.982Z,1010.90
2023-05-13T06:33:02.239Z,1010.93
2023-05-13T06:33:59.542Z,1010.92
2023-05-13T06:35:00.430Z,1010.93
2023-05-13T06:36:01.279Z,1010.94
2023-05-13T06:37:02.167Z,1010.93
2023-05-13T06:38:03.108Z,1010.93
2023-05-13T06:39:03.939Z,1010.98
2023-05-13T06:40:04.798Z,1010.98
2023-05-13T06:41:05.700Z,1011.01
2023-05-13T06:42:06.580Z,1011.00
2023-05-13T06:43:07.440Z,1011.01
2023-05-13T06:44:08.315Z,1011.02
2023-05-13T06:45:09.162Z,1011.07
2023-05-13T06:46:10.042Z,1011.08
2023-05-13T06:47:11.036Z,1011.08
2023-05-13T06:48:11.489Z,1011.10
2023-05-13T06:49:12.409Z,1011.11
2023-05-13T06:50:13.278Z,1011.10
2023-05-13T06:51:14.159Z,1011.11
2023-05-13T06:52:15.076Z,1011.13
2023-05-13T06:53:15.950Z,1011.16
2023-05-13T06:54:16.820Z,1011.14
2023-05-13T06:55:17.735Z,1011.14
2023-05-13T06:56:18.578Z,1011.13
2023-05-13T06:57:20.781Z,1011.16
2023-05-13T06:58:20.249Z,1011.16
2023-05-13T06:59:21.129Z,1011.16
2023-05-13T07:00:22.231Z,1011.16
2023-05-13T07:01:22.848Z,1011.17
2023-05-13T07:02:23.286Z,1011.14
2023-05-13T07:03:24.223Z,1011.17
2023-05-13T07:04:25.083Z,1011.17
2023-05-13T07:05:25.955Z,1011.16
2023-05-13T07:06:26.825Z,1011.18
2023-05-13T07:07:27.701Z,1011.21
2023-05-13T07:08:28.595Z,1011.21
2023-05-13T07:09:29.470Z,1011.24
2023-05-13T07:10:30.344Z,1011.21
2023-05-13T07:11:31.204Z,1011.20
2023-05-13T07:12:32.110Z,1011.24
2023-05-13T07:13:33.030Z,1011.25
2023-05-13T07:14:33.927Z,1011.27
2023-05-13T07:15:34.804Z,1011.26
2023-05-13T07:16:35.665Z,1011.22
2023-05-13T07:17:36.733Z,1011.22
2023-05-13T07:18:37.265Z,1011.24
2023-05-13T07:19:38.148Z,1011.22
2023-05-13T07:20:39.016Z,1011.22
2023-05-13T07:21:39.897Z,1011.21
2023-05-13T07:22:40.761Z,1011.22
2023-05-13T07:23:43.704Z,1011.22
2023-05-13T07:24:42.225Z,1011.22
2023-05-13T07:25:43.088Z,1011.23
2023-05-13T07:26:43.972Z,1011.22
2023-05-13T07:27:44.869Z,1011.23
2023-05-13T07:28:45.691Z,1011.21
2023-05-13T07:29:46.590Z,1011.21
2023-05-13T07:30:47.477Z,1011.22
2023-05-13T07:31:48.327Z,1011.21
2023-05-13T07:32:49.234Z,1011.23
2023-05-13T07:33:50.116Z,1011.23
2023-05-13T07:34:50.994Z,1011.21
2023-05-13T07:35:51.888Z,1011.22
2023-05-13T07:36:52.746Z,1011.23
2023-05-13T07:37:53.636Z,1011.22
2023-05-13T07:38:54.501Z,1011.21
2023-05-13T07:39:55.377Z,1011.21
2023-05-13T07:40:56.253Z,1011.21
2023-05-13T07:41:57.132Z,1011.18
2023-05-13T07:42:58.140Z,1011.18
2023-05-13T07:43:58.956Z,1011.20
2023-05-13T07:44:59.948Z,1011.19
2023-05-13T07:46:00.805Z,1011.18
2023-05-13T07:47:01.750Z,1011.18
2023-05-13T07:48:02.686Z,1011.16
2023-05-13T07:49:03.528Z,1011.19
2023-05-13T07:50:04.410Z,1011.18
2023-05-13T07:51:05.291Z,1011.14
2023-05-13T07:52:06.149Z,1011.15
2023-05-13T07:53:07.046Z,1011.17
2023-05-13T07:54:07.932Z,1011.14
2023-05-13T07:55:08.780Z,1011.14
2023-05-13T07:56:09.659Z,1011.16
2023-05-13T07:57:10.540Z,1011.17
2023-05-13T07:58:11.449Z,1011.19
2023-05-13T07:59:12.298Z,1011.14
2023-05-13T08:00:13.198Z,1011.11
2023-05-13T08:01:14.078Z,1011.17
2023-05-13T08:02:15.030Z,1011.15
2023-05-13T08:03:15.910Z,1011.15
2023-05-13T08:04:17.088Z,1011.16
2023-05-13T08:05:17.829Z,1011.15
2023-05-13T08:06:18.714Z,1011.15
2023-05-13T08:07:19.598Z,1011.14
2023-05-13T08:08:20.495Z,1011.14
2023-05-13T08:09:21.361Z,1011.13
2023-05-13T08:10:22.284Z,1011.13
2023-05-13T08:11:23.171Z,1011.15
2023-05-13T08:12:24.067Z,1011.13
2023-05-13T08:13:24.987Z,1011.12
2023-05-13T08:14:25.963Z,1011.15
2023-05-13T08:15:26.812Z,1011.13
2023-05-13T08:16:27.747Z,1011.15
2023-05-13T08:17:28.632Z,1011.13
2023-05-13T08:18:29.565Z,1011.14
2023-05-13T08:19:30.420Z,1011.14
2023-05-13T08:20:31.310Z,1011.19
2023-05-13T08:21:32.174Z,1011.18
2023-05-13T08:22:33.044Z,1011.19
2023-05-13T08:23:44.964Z,1011.16
2023-05-13T08:24:35.704Z,1011.19
2023-05-13T08:25:35.578Z,1011.18
2023-05-13T08:26:36.450Z,1011.19
2023-05-13T08:27:37.327Z,1011.19
2023-05-13T08:28:38.237Z,1011.22
2023-05-13T08:29:39.084Z,1011.19
2023-05-13T08:30:39.976Z,1011.20
2023-05-13T08:31:40.893Z,1011.16
2023-05-13T08:32:41.832Z,1011.17
2023-05-13T08:33:42.756Z,1011.16
2023-05-13T08:34:43.647Z,1011.16
2023-05-13T08:35:44.923Z,1011.17
2023-05-13T08:36:45.271Z,1011.18
2023-05-13T08:37:46.165Z,1011.14
2023-05-13T08:38:47.025Z,1011.15
2023-05-13T08:39:47.909Z,1011.19
2023-05-13T08:40:48.784Z,1011.16
2023-05-13T08:41:49.666Z,1011.15
2023-05-13T08:42:50.543Z,1011.17
2023-05-13T08:43:51.458Z,1011.21
2023-05-13T08:44:52.298Z,1011.21
2023-05-13T08:45:53.209Z,1011.13
2023-05-13T08:46:54.080Z,1011.14
2023-05-13T08:47:55.064Z,1011.16
2023-05-13T08:48:55.943Z,1011.17
2023-05-13T08:49:56.819Z,1011.14
2023-05-13T08:50:57.736Z,1011.17
2023-05-13T08:51:58.584Z,1011.17
2023-05-13T08:52:59.468Z,1011.14
2023-05-13T08:54:00.360Z,1011.11
2023-05-13T08:55:01.275Z,1011.16
2023-05-13T08:56:02.137Z,1011.16
2023-05-13T08:57:03.000Z,1011.13
2023-05-13T09:12:53.170Z,1011.15
2023-05-13T09:13:54.322Z,1011.12
2023-05-13T09:14:54.781Z,1011.15
2023-05-13T09:15:55.766Z,1011.16
2023-05-13T09:16:56.180Z,1011.14
2023-05-13T09:17:57.078Z,1011.12
2023-05-13T09:18:58.219Z,1011.17
2023-05-13T09:19:58.821Z,1011.14
2023-05-13T09:20:59.315Z,1011.17
2023-05-13T09:27:33.335Z,1011.14
2023-05-13T09:28:34.334Z,1011.14
2023-05-13T09:29:35.301Z,1011.15
2023-05-13T09:32:38.905Z,1011.11
2023-05-13T09:33:39.319Z,1011.11
2023-05-13T09:34:40.169Z,1011.08
2023-05-13T09:35:41.114Z,1011.09
2023-05-13T09:36:42.006Z,1011.10
2023-05-13T09:37:42.911Z,1011.10
2023-05-13T09:38:43.773Z,1011.09
2023-05-13T09:39:44.776Z,1011.05
2023-05-13T09:40:45.644Z,1011.08
2023-05-13T09:41:46.571Z,1011.04
2023-05-13T09:42:47.454Z,1011.06
2023-05-13T09:43:48.462Z,1011.11
2023-05-13T09:44:49.317Z,1011.07
2023-05-13T09:45:50.178Z,1011.05
2023-05-13T09:46:51.090Z,1011.07
2023-05-13T09:47:52.096Z,1011.09
2023-05-13T09:48:53.066Z,1011.09
2023-05-13T09:49:54.472Z,1011.10
2023-05-13T09:50:54.041Z,1011.10
2023-05-13T09:51:55.022Z,1011.08
2023-05-13T09:52:55.506Z,1011.05
2023-05-13T09:53:56.380Z,1011.07
2023-05-13T09:54:57.290Z,1011.04
2023-05-13T09:55:58.146Z,1011.05
2023-05-13T09:56:59.020Z,1011.06
2023-05-13T09:57:59.896Z,1011.03
2023-05-13T09:59:00.844Z,1011.05
2023-05-13T10:00:01.744Z,1011.04
2023-05-13T10:01:02.636Z,1011.04
2023-05-13T10:02:03.485Z,1011.02
2023-05-13T10:03:04.371Z,1011.01
2023-05-13T10:04:05.272Z,1011.03
2023-05-13T10:05:06.429Z,1011.05
2023-05-13T10:06:16.942Z,1010.98
2023-05-13T10:07:07.841Z,1011.00
2023-05-13T10:08:08.721Z,1011.01
2023-05-13T10:09:09.677Z,1010.96
2023-05-13T10:10:10.536Z,1010.99
2023-05-13T10:11:11.583Z,1010.97
2023-05-13T10:12:12.333Z,1010.96
2023-05-13T10:13:13.417Z,1010.93
2023-05-13T10:14:13.862Z,1010.91
2023-05-13T10:15:14.734Z,1010.94
2023-05-13T10:16:15.686Z,1010.96
2023-05-13T10:17:16.591Z,1010.94
2023-05-13T10:18:17.540Z,1010.92
2023-05-13T10:19:18.610Z,1010.92
2023-05-13T10:20:19.166Z,1010.96
2023-05-13T10:21:19.552Z,1010.96
2023-05-13T10:24:38.497Z,1010.91
2023-05-13T10:25:36.628Z,1010.95
2023-05-13T10:26:37.543Z,1010.93
2023-05-13T10:27:38.425Z,1010.88
2023-05-13T10:28:39.314Z,1010.89
2023-05-13T10:29:40.226Z,1010.91
2023-05-13T10:30:41.135Z,1010.88
2023-05-13T10:31:42.056Z,1010.89
2023-05-13T10:32:50.466Z,1010.88
2023-05-13T10:33:43.788Z,1010.84
2023-05-13T10:34:44.823Z,1010.89
2023-05-13T10:35:45.693Z,1010.86
2023-05-13T10:36:46.749Z,1010.85
2023-05-13T10:40:34.768Z,1010.88
2023-05-13T10:44:55.190Z,1010.82
2023-05-13T10:45:55.631Z,1010.86
2023-05-13T10:50:50.340Z,1010.81
2023-05-13T10:51:50.896Z,1010.80
2023-05-13T10:53:07.885Z,1010.78
2023-05-13T10:53:52.317Z,1010.78
2023-05-13T10:54:53.185Z,1010.77
2023-05-13T10:55:54.041Z,1010.76
2023-05-13T10:56:54.940Z,1010.80
2023-05-13T10:57:55.810Z,1010.76
2023-05-13T10:58:56.676Z,1010.76
2023-05-13T10:59:57.902Z,1010.76
2023-05-13T11:00:58.446Z,1010.79
2023-05-13T11:01:59.421Z,1010.74
2023-05-13T11:02:59.885Z,1010.79
2023-05-13T11:04:01.534Z,1010.77
2023-05-13T11:05:01.476Z,1010.78
2023-05-13T11:06:02.327Z,1010.78
2023-05-13T11:07:03.198Z,1010.78
2023-05-13T11:08:04.422Z,1010.78
2023-05-13T11:09:04.761Z,1010.76
2023-05-13T11:10:05.629Z,1010.70
2023-05-13T11:11:06.498Z,1010.70
2023-05-13T11:12:07.393Z,1010.74
2023-05-13T11:13:08.251Z,1010.74
2023-05-13T11:14:09.137Z,1010.73
2023-05-13T11:15:10.004Z,1010.74
2023-05-13T11:16:10.940Z,1010.74
2023-05-13T11:17:11.813Z,1010.74
2023-05-13T11:18:12.738Z,1010.73
2023-05-13T11:19:13.708Z,1010.71
2023-05-13T11:20:14.107Z,1010.73
2023-05-13T11:21:14.968Z,1010.69
2023-05-13T11:22:15.840Z,1010.66
2023-05-13T11:23:16.742Z,1010.68
2023-05-13T11:24:17.623Z,1010.69
2023-05-13T11:25:18.514Z,1010.69
2023-05-13T11:26:19.403Z,1010.67
2023-05-13T11:27:20.354Z,1010.69
2023-05-13T11:28:21.168Z,1010.71
2023-05-13T11:29:22.069Z,1010.68
2023-05-13T11:30:23.148Z,1010.67
2023-05-13T11:31:23.755Z,1010.66
2023-05-13T11:32:24.671Z,1010.65
2023-05-13T11:33:25.516Z,1010.66
2023-05-13T11:34:26.398Z,1010.69
2023-05-13T11:35:27.292Z,1010.69
2023-05-13T11:36:28.155Z,1010.65
2023-05-13T11:37:29.018Z,1010.65
2023-05-13T11:38:29.939Z,1010.64
2023-05-13T11:39:30.779Z,1010.63
2023-05-13T11:40:31.664Z,1010.64
2023-05-13T11:41:32.532Z,1010.65
2023-05-13T11:42:33.410Z,1010.65
2023-05-13T11:43:34.962Z,1010.62
2023-05-13T11:44:34.797Z,1010.64
2023-05-13T11:45:35.708Z,1010.66
2023-05-13T11:46:36.661Z,1010.60
2023-05-13T11:47:37.547Z,1010.64
2023-05-13T11:48:38.389Z,1010.61
2023-05-13T11:49:39.254Z,1010.63
2023-05-13T11:50:40.136Z,1010.66
2023-05-13T11:51:41.008Z,1010.68
2023-05-13T11:52:41.974Z,1010.68
2023-05-13T11:53:42.824Z,1010.69
2023-05-13T11:54:43.722Z,1010.67
2023-05-13T11:55:44.632Z,1010.67
2023-05-13T11:56:45.557Z,1010.73
2023-05-13T11:57:46.382Z,1010.72
2023-05-13T11:58:47.328Z,1010.72
2023-05-13T11:59:48.604Z,1010.67
2023-05-13T12:00:49.034Z,1010.71
2023-05-13T12:01:49.982Z,1010.69
2023-05-13T12:02:50.978Z,1010.72
2023-05-13T12:03:51.341Z,1010.71
2023-05-13T12:04:52.258Z,1010.70
2023-05-13T12:05:53.159Z,1010.66
2023-05-13T12:06:54.014Z,1010.64
2023-05-13T12:07:55.092Z,1010.63
2023-05-13T12:08:55.409Z,1010.65
2023-05-13T12:09:56.395Z,1010.66
2023-05-13T12:10:57.221Z,1010.63
2023-05-13T12:11:58.089Z,1010.66
2023-05-13T12:13:06.512Z,1010.64
2023-05-13T12:13:59.869Z,1010.64
2023-05-13T12:15:00.741Z,1010.63
2023-05-13T12:16:01.635Z,1010.62
2023-05-13T12:17:02.400Z,1010.63
2023-05-13T12:18:02.982Z,1010.63
2023-05-13T12:19:03.905Z,1010.62
2023-05-13T12:20:05.819Z,1010.60
2023-05-13T12:21:05.259Z,1010.63
2023-05-13T12:22:06.134Z,1010.67
2023-05-13T12:23:07.000Z,1010.66
2023-05-13T12:24:07.871Z,1010.64
2023-05-13T12:25:08.754Z,1010.65
2023-05-13T12:26:09.615Z,1010.67
2023-05-13T12:27:11.628Z,1010.69
2023-05-13T12:28:11.062Z,1010.70
2023-05-13T12:29:11.962Z,1010.71
2023-05-13T12:30:12.828Z,1010.69
2023-05-13T12:31:13.743Z,1010.71
2023-05-13T12:32:14.603Z,1010.71
2023-05-13T12:33:15.459Z,1010.69
2023-05-13T12:34:16.342Z,1010.71
2023-05-13T12:35:17.212Z,1010.68
2023-05-13T12:36:18.114Z,1010.65
2023-05-13T12:37:18.966Z,1010.62
2023-05-13T12:38:19.851Z,1010.63
2023-05-13T12:39:20.740Z,1010.58
2023-05-13T12:40:21.598Z,1010.63
2023-05-13T12:41:22.470Z,1010.62
2023-05-13T12:42:23.341Z,1010.64
2023-05-13T12:43:24.220Z,1010.61
2023-05-13T12:44:25.109Z,1010.63
2023-05-13T12:45:25.992Z,1010.56
2023-05-13T12:46:26.971Z,1010.65
2023-05-13T12:47:27.853Z,1010.63
2023-05-13T12:48:28.684Z,1010.60
2023-05-13T12:49:29.603Z,1010.62
2023-05-13T12:50:30.440Z,1010.61